Current Conditions

Updated: 20-Sep-2018 3:51 PM  
Summary / Temperature Wind Rain






Feels like: 87°F

1-hour difference
0.4°F 0.4°F warmer than last hour.

24-hour difference
4.5°F4.5°F warmer than yesterday at this time.

  Today Yesterday
High: 90.2°F
3:03 PM
86.1°F
3:17 PM
Low: 55.7°F
6:58 AM
53.4°F
7:13 AM
Wind from NNW NNW
0.1
Gust:  0.0 mph
0 Beaufort - Calm

Today: 4.6 - 5:33 AM
Month: 9.2 mph - Sep 1
Rain Today: 0.00 in
Current Rate (/hr): 0.000 in
Max Rate (/hr):
Rain Yesterday: 0.00 in
Storm Rain: 0.00 in
This Month: 0.00 in
Season Total: 6.40 in
Last Rain Event: 156 days ago
Humidity / Barometer Sun / Moon
Humidity: 27 Decreased 4.0% in the last hour.
Dew Point: 51.4°F Decreased 3.3°F in the last hour.
Barometer: 29.785 inHg  
Baro Trend: Steady
Sunrise: 6:43 AM
Sunset: 6:57 PM
Moonrise: 4:53 PM
Moonset: 2:29 AM
Sky Conditions UV Index
Summary: Clear
Visibility: 10 miles
Clouds: None
KVIS - 2:56 PM PDT
Current: 3.0  Moderate 
Thursday: 7.2  High 
Friday: 7.0  High 
Air Quality Fire Danger
 Moderate 
Ozone 72 ppb
PM 2.5 14 μg/m3
3:50 PM PDT
Current: 72  Moderate 

Local Alerts Local Forecast
Local NWS Alerts
Today

Sunny

High 92
Tonight

Clear

Low 61
Fri

Sunny

High 95
Fri night

Clear

Low 59
Sat

Sunny

High 95
Sat night

Clear

Low 60
Sun

Sunny

High 93

Local Radar Local Satellite Neighborhood Cam Sky Cam
Local Radar Local Satellite Neighborhood Cam Sky Cam


Nearby Personal Stations

Weather Underground PWS KCAEXETE7     Weather Underground PWS KCAEXETE6     Weather Underground PWS KCAEXETE11

Nearby Airport Stations

KVIS - Visalia, California, USA
Distance from station: W 14mi, 23km
Updated: Thu, 20-Sep-2018 2:56pm PDT
Clear
Clear
 Wind from varies
Wind: varies 6 mph , 9 km/h
Temperature: 88°F , 31°C
Dew Point: 46°F , 8°C
Humidity: 24%
Barometer: 29.83 inHg , 1010.2 hPa
Clouds: Clear
Visibility: 10 miles , 16 km
2018/09/20 21:56 KVIS 202156Z AUTO VRB05KT 10SM CLR 31/08 A2983 RMK AO2 SLP107 T03110083
KPTV - Porterville, California, USA
Distance from station: SSE 19mi, 31km
Updated: Thu, 20-Sep-2018 2:56pm PDT

 Wind from calm
Wind: Calm
Temperature: 90°F , 32°C
Dew Point: 48°F , 9°C
Humidity: 24%
Barometer: 29.84 inHg , 1010.5 hPa
Visibility: 10 miles , 16 km
2018/09/20 21:56 KPTV 202156Z AUTO 00000KT 10SM 32/09 A2984 RMK AO2 SLP112 T03170094 $

Metar display script from Saratoga-Weather.org



Visitor Map